Shipston-on-Stour, United Kingdom
Current Conditions -  °F | °C
As of 5:20 PM on Thursday 30 Oct 2014 (Local Time) from EGTK Reporting Station
Overcast Overcast  
Wind Chill: 61°   Ceiling: 1400
Heat Index: 61°   Visibility: 6mi
Dew Point: 59°   Wind: 8mph
Humidity: 94%   Direction: 170°S
Pressure: 30.03"   Gusts: NA
Location:  52.06°N, 1.63°W
Report Text: EGTK 301720Z 17007KT 9999 OVC014 16/15 Q1017
Loading
Personal Weather Stations






























Interactive Weather Map
Tropical Storm Tracking
New forecast layout! Learn more

10-Day Weather Forecast

Advertisements
Track Severe Weather on mobile